Custer, SD (57730)

4:41 PM MDT on April 26, 2017 (GMT -0600)
Pacer Subdivision | | Change Station

Elev 5558 ft 43.73 °N, 103.60 °W | Updated 13 minutes ago

Overcast
Overcast
35.3 °F
Feels Like 35 °F
N
0.0
Wind Variable Wind from SSE
Gusts 0.0 mph

Today
High -- | Low -- °F
--% Chance of Precip.
Yesterday
High -- | Low -- °F
Precip. -- in
Pressure 29.75 in
Visibility 10.0 miles
Clouds Overcast 200 ft
Windchill 35 °F
Dew Point 33 °F
Humidity 92%
Rainfall 0.18 in
Snow Depth Not available.
5:53 AM 7:51 PM
New Moon, 0% visible
METAR KCUT 262153Z AUTO 05005KT 10SM OVC002 02/00 A2968 RMK AO2 SLP075 T00170000
Pressure 29.75 in
Visibility 10.0 miles
Clouds Overcast 200 ft
Windchill 35 °F
Dew Point 33 °F
Humidity 92%
Rainfall 0.18 in
Snow Depth Not available.
5:53 AM 7:51 PM
New Moon, 0% visible
METAR KCUT 262153Z AUTO 05005KT 10SM OVC002 02/00 A2968 RMK AO2 SLP075 T00170000

Get Severe Weather Alerts

Thanks for signing up!

Be on the lookout for a verification email in your inbox.

You'll start receiving the daily forecast at 8 AM.

×

10-Day Weather Forecast

Almanac

Astronomy

Apr. 26, 2017 Rise Set
Actual Time
Civil Twilight
Nautical Twilight
Astronomical Twilight
Moon
Length of Visible Light
Length of Day
Tomorrow will be .
, % of the Moon is Illuminated

Today's Extremes

State Highs State Lows

Community

WunderPhotos

WunderBlog® & News

Nearby

Air Quality

  Air Quality AQ Index Pollutant
Not available.

Snow Depth

Station Depth Elevation

Earthquake Activity

City Distance Mag. Time & Date
Minimum magnitude displayed is 2.5.

Coastal Water Temperatures

Place Temperature

Stations

Nearby Weather Stations

Station Location Temp. Windchill Dew Point Humidity Wind Precip. Elev Updated Type
                   

Watches & Warnings

There are currently no watches in effect.